createdAt,value
2019-05-10T00:03:23.793Z,9.10
2019-05-10T00:07:26.069Z,10.20
2019-05-10T00:11:28.298Z,9.53
2019-05-10T00:15:30.486Z,8.60
2019-05-10T00:19:32.899Z,10.07
2019-05-10T00:23:35.184Z,8.70
2019-05-10T00:27:37.588Z,8.73
2019-05-10T00:31:39.854Z,9.47
2019-05-10T00:35:42.182Z,9.63
2019-05-10T00:39:44.383Z,9.33
2019-05-10T00:43:46.562Z,9.30
2019-05-10T00:47:48.872Z,8.40
2019-05-10T00:51:51.289Z,6.70
2019-05-10T00:55:53.545Z,7.33
2019-05-10T00:59:56.149Z,7.10
2019-05-10T01:03:58.680Z,5.87
2019-05-10T01:08:01.138Z,5.70
2019-05-10T01:12:03.642Z,4.70
2019-05-10T01:16:05.977Z,4.90
2019-05-10T01:20:08.490Z,4.80
2019-05-10T01:24:11.322Z,4.93
2019-05-10T01:28:13.779Z,4.57
2019-05-10T01:32:17.063Z,3.90
2019-05-10T01:36:19.718Z,3.93
2019-05-10T01:40:22.734Z,3.30
2019-05-10T01:44:25.204Z,4.53
2019-05-10T01:48:27.694Z,3.10
2019-05-10T01:52:30.132Z,3.20
2019-05-10T01:56:32.612Z,2.97
2019-05-10T02:00:35.043Z,3.00
2019-05-10T02:04:37.573Z,2.87
2019-05-10T02:08:39.910Z,2.77
2019-05-10T02:12:42.341Z,3.13
2019-05-10T02:16:44.882Z,2.87
2019-05-10T02:20:47.535Z,3.47
2019-05-10T02:24:49.995Z,2.77
2019-05-10T02:28:52.598Z,3.30
2019-05-10T02:32:54.917Z,2.83
2019-05-10T02:36:57.329Z,2.77
2019-05-10T02:40:59.887Z,2.53
2019-05-10T02:45:02.417Z,3.03
2019-05-10T02:49:04.697Z,2.77
2019-05-10T02:53:07.178Z,2.60
2019-05-10T02:57:09.635Z,1.70
2019-05-10T03:01:12.390Z,2.40
2019-05-10T03:05:14.786Z,2.83
2019-05-10T03:09:17.225Z,3.97
2019-05-10T03:13:19.545Z,2.60
2019-05-10T03:17:22.440Z,3.40
2019-05-10T03:21:25.149Z,2.90
2019-05-10T03:25:27.835Z,2.20
2019-05-10T03:29:31.374Z,2.77
2019-05-10T03:33:34.097Z,2.70
2019-05-10T03:37:36.591Z,2.43
2019-05-10T03:41:39.175Z,2.97
2019-05-10T03:45:41.478Z,2.93
2019-05-10T03:49:44.126Z,2.70
2019-05-10T03:53:46.498Z,2.90
2019-05-10T03:57:48.973Z,2.40
2019-05-10T04:01:51.562Z,3.00
2019-05-10T04:05:54.150Z,2.50
2019-05-10T04:09:56.562Z,3.00
2019-05-10T04:13:59.147Z,2.93
2019-05-10T04:18:01.425Z,3.13
2019-05-10T04:22:04.167Z,3.47
2019-05-10T04:26:06.599Z,2.53
2019-05-10T04:30:09.100Z,3.00
2019-05-10T04:34:11.450Z,2.07
2019-05-10T04:38:14.132Z,2.77
2019-05-10T04:42:16.417Z,2.80
2019-05-10T04:46:19.191Z,2.87
2019-05-10T04:50:21.613Z,2.40
2019-05-10T04:54:24.108Z,2.67
2019-05-10T04:58:26.382Z,2.30
2019-05-10T05:02:28.798Z,2.60
2019-05-10T05:06:31.196Z,3.27
2019-05-10T05:10:33.787Z,3.13
2019-05-10T05:14:36.193Z,3.00
2019-05-10T05:18:38.679Z,2.90
2019-05-10T05:22:40.978Z,2.93
2019-05-10T05:26:43.396Z,3.47
2019-05-10T05:30:45.787Z,3.23
2019-05-10T05:34:48.182Z,2.50
2019-05-10T05:38:51.203Z,2.60
2019-05-10T05:42:53.820Z,3.23
2019-05-10T05:46:56.190Z,2.50
2019-05-10T05:50:58.801Z,2.90
2019-05-10T05:55:01.373Z,2.60
2019-05-10T05:59:03.884Z,2.20
2019-05-10T06:03:06.337Z,2.47
2019-05-10T06:07:08.927Z,2.60
2019-05-10T06:11:11.383Z,2.33
2019-05-10T06:15:14.037Z,2.20
2019-05-10T06:19:20.482Z,2.17
2019-05-10T06:23:20.279Z,2.10
2019-05-10T06:27:22.937Z,2.57
2019-05-10T06:31:25.541Z,3.00
2019-05-10T06:35:27.991Z,2.37
2019-05-10T06:39:30.580Z,2.27
2019-05-10T06:43:32.897Z,2.73
2019-05-10T06:47:35.896Z,2.40
2019-05-10T06:51:42.768Z,2.97
2019-05-10T06:55:42.200Z,3.03
2019-05-10T06:59:44.598Z,2.60
2019-05-10T07:03:46.982Z,2.73
2019-05-10T07:07:49.401Z,2.40
2019-05-10T07:11:52.594Z,2.57
2019-05-10T07:15:54.938Z,2.77
2019-05-10T07:19:57.532Z,3.00
2019-05-10T07:23:59.972Z,2.50
2019-05-10T07:28:02.396Z,2.70
2019-05-10T07:32:04.779Z,2.67
2019-05-10T07:36:14.432Z,2.73
2019-05-10T07:40:11.187Z,2.63
2019-05-10T07:44:13.599Z,2.53
2019-05-10T07:48:15.916Z,2.70
2019-05-10T07:52:18.346Z,2.40
2019-05-10T07:56:20.776Z,2.93
2019-05-10T08:00:25.308Z,3.70
2019-05-10T08:04:33.228Z,3.43
2019-05-10T08:08:30.911Z,3.30
2019-05-10T08:12:35.127Z,3.60
2019-05-10T08:16:38.704Z,3.93
2019-05-10T08:20:49.295Z,5.00
2019-05-10T08:24:52.208Z,4.00
2019-05-10T08:28:48.441Z,4.80
2019-05-10T08:32:52.615Z,4.57
2019-05-10T08:36:54.983Z,4.57
2019-05-10T08:40:57.621Z,3.83
2019-05-10T08:45:05.433Z,4.87
2019-05-10T08:49:03.674Z,5.07
2019-05-10T08:53:10.855Z,5.00
2019-05-10T08:57:12.669Z,4.40
2019-05-10T09:01:25.820Z,4.40
2019-05-10T09:05:21.040Z,5.97
2019-05-10T09:09:22.793Z,5.87
2019-05-10T09:13:28.803Z,5.60
2019-05-10T09:17:28.899Z,6.90
2019-05-10T09:21:32.217Z,5.87
2019-05-10T09:25:34.571Z,6.57
2019-05-10T09:29:37.493Z,5.87
2019-05-10T09:33:43.376Z,6.40
2019-05-10T09:37:47.696Z,6.90
2019-05-10T09:41:47.552Z,5.40
2019-05-10T09:45:50.031Z,7.13
2019-05-10T09:49:57.246Z,7.00
2019-05-10T09:53:57.615Z,6.37
2019-05-10T09:58:00.070Z,5.90
2019-05-10T10:02:05.055Z,6.53
2019-05-10T10:06:10.271Z,6.33
2019-05-10T10:10:12.668Z,6.30
2019-05-10T10:14:13.994Z,5.67
2019-05-10T10:18:21.369Z,6.70
2019-05-10T10:22:20.262Z,7.13
2019-05-10T10:26:22.709Z,7.57
2019-05-10T10:30:27.130Z,7.47
2019-05-10T10:34:32.769Z,6.77
2019-05-10T10:42:51.863Z,8.30
2019-05-10T10:46:54.479Z,7.40
2019-05-10T10:50:58.595Z,7.30
2019-05-10T10:55:05.467Z,6.90
2019-05-10T10:59:07.360Z,7.33
2019-05-10T11:03:08.503Z,7.20
2019-05-10T11:07:11.176Z,6.90
2019-05-10T11:11:13.751Z,6.60
2019-05-10T11:15:16.393Z,7.10
2019-05-10T11:19:21.285Z,7.90
2019-05-10T11:23:32.835Z,7.70
2019-05-10T11:27:27.544Z,8.23
2019-05-10T11:31:31.195Z,8.10
2019-05-10T11:35:34.683Z,7.80
2019-05-10T11:39:45.143Z,8.13
2019-05-10T11:43:41.914Z,8.10
2019-05-10T11:47:48.099Z,8.00
2019-05-10T11:51:54.799Z,8.70
2019-05-10T11:55:52.486Z,9.13
2019-05-10T11:59:54.720Z,8.33
2019-05-10T12:03:57.226Z,9.23
2019-05-10T12:08:01.960Z,8.70
2019-05-10T12:12:03.624Z,10.00
2019-05-10T12:16:06.083Z,14.10
2019-05-10T12:20:16.374Z,15.53
2019-05-10T12:24:32.548Z,12.93
2019-05-10T12:28:24.439Z,17.00
2019-05-10T12:32:21.324Z,20.67
2019-05-10T12:36:27.552Z,17.40
2019-05-10T12:40:27.484Z,16.00
2019-05-10T12:44:33.157Z,13.87
2019-05-10T12:48:35.925Z,13.23
2019-05-10T12:52:37.747Z,18.17
2019-05-10T12:56:43.952Z,18.10
2019-05-10T13:00:46.523Z,14.37
2019-05-10T13:04:52.717Z,14.20
2019-05-10T13:08:51.587Z,14.00
2019-05-10T13:12:53.916Z,12.90
2019-05-10T13:16:56.363Z,12.80
2019-05-10T13:20:58.915Z,12.93
2019-05-10T13:25:01.448Z,11.70
2019-05-10T13:29:07.831Z,10.60
2019-05-10T13:33:07.565Z,11.13
2019-05-10T13:37:13.704Z,11.80
2019-05-10T13:41:17.775Z,12.20
2019-05-10T13:45:17.866Z,10.00
2019-05-10T13:49:20.392Z,10.40
2019-05-10T13:53:23.199Z,10.37
2019-05-10T13:57:26.321Z,9.73
2019-05-10T14:01:28.628Z,10.90
2019-05-10T14:05:35.450Z,10.20
2019-05-10T14:09:37.209Z,10.57
2019-05-10T14:13:41.636Z,9.87
2019-05-10T14:17:43.896Z,9.60
2019-05-10T14:21:46.362Z,8.30
2019-05-10T14:25:49.003Z,9.40
2019-05-10T14:29:51.393Z,10.63
2019-05-10T14:34:14.982Z,9.50
2019-05-10T14:38:07.170Z,9.67
2019-05-10T14:42:01.409Z,9.77
2019-05-10T14:46:04.041Z,10.60
2019-05-10T14:50:06.499Z,11.03
2019-05-10T14:54:09.099Z,10.50
2019-05-10T14:58:11.440Z,11.10
2019-05-10T15:02:16.791Z,10.40
2019-05-10T15:06:17.656Z,12.33
2019-05-10T15:10:20.111Z,12.47
2019-05-10T15:14:22.423Z,12.40
2019-05-10T15:18:24.698Z,12.60
2019-05-10T15:22:27.068Z,14.53
2019-05-10T15:26:29.930Z,15.33
2019-05-10T15:30:32.203Z,12.23
2019-05-10T15:34:34.625Z,11.63
2019-05-10T15:38:39.563Z,11.53
2019-05-10T15:42:40.726Z,10.40
2019-05-10T15:46:43.164Z,11.60
2019-05-10T15:50:45.662Z,12.37
2019-05-10T15:54:48.077Z,12.80
2019-05-10T15:58:50.449Z,12.43
2019-05-10T16:02:53.411Z,12.33
2019-05-10T16:06:55.986Z,11.13
2019-05-10T16:10:58.619Z,11.40
2019-05-10T16:15:01.091Z,12.60
2019-05-10T16:19:03.492Z,11.50
2019-05-10T16:23:08.890Z,12.40
2019-05-10T16:27:09.902Z,11.30
2019-05-10T16:31:12.368Z,10.40
2019-05-10T16:35:14.869Z,13.30
2019-05-10T16:39:17.450Z,13.77
2019-05-10T16:43:24.262Z,12.80
2019-05-10T16:47:23.761Z,11.73
2019-05-10T16:51:26.151Z,11.37
2019-05-10T16:55:28.688Z,10.80
2019-05-10T16:59:31.441Z,11.07
2019-05-10T17:03:34.031Z,12.73
2019-05-10T17:07:36.255Z,14.93
2019-05-10T17:11:41.436Z,12.77
2019-05-10T17:15:42.696Z,14.83
2019-05-10T17:19:45.133Z,13.60
2019-05-10T17:23:48.656Z,14.63
2019-05-10T17:27:57.670Z,14.00
2019-05-10T17:31:55.055Z,13.80
2019-05-10T17:36:07.907Z,13.93
2019-05-10T17:40:04.641Z,12.20
2019-05-10T17:44:05.041Z,12.63
2019-05-10T17:48:08.560Z,12.20
2019-05-10T17:52:12.633Z,10.97
2019-05-10T17:56:15.006Z,11.30
2019-05-10T18:00:17.487Z,11.97
2019-05-10T18:04:19.824Z,16.77
2019-05-10T18:08:22.311Z,22.00
2019-05-10T18:12:27.163Z,19.30
2019-05-10T18:16:28.828Z,14.40
2019-05-10T18:20:40.978Z,13.43
2019-05-10T18:24:36.474Z,13.43
2019-05-10T18:28:38.997Z,19.10
2019-05-10T18:32:41.483Z,16.83
2019-05-10T18:36:51.977Z,17.70
2019-05-10T18:40:47.891Z,15.57
2019-05-10T18:44:52.123Z,13.67
2019-05-10T18:48:56.617Z,13.60
2019-05-10T18:52:59.079Z,12.00
2019-05-10T18:57:04.805Z,13.40
2019-05-10T19:01:05.894Z,10.90
2019-05-10T19:05:08.330Z,10.13
2019-05-10T19:09:10.628Z,11.00
2019-05-10T19:13:13.448Z,11.33
2019-05-10T19:17:16.293Z,10.87
2019-05-10T19:21:18.851Z,11.60
2019-05-10T19:25:21.230Z,11.70
2019-05-10T19:29:27.234Z,11.30
2019-05-10T19:33:29.733Z,11.27
2019-05-10T19:37:34.347Z,11.27
2019-05-10T19:41:35.308Z,9.80
2019-05-10T19:45:37.851Z,9.50
2019-05-10T19:49:40.422Z,9.27
2019-05-10T19:53:43.967Z,8.63
2019-05-10T19:57:49.504Z,8.90
2019-05-10T20:01:50.373Z,14.07
2019-05-10T20:05:53.277Z,11.90
2019-05-10T20:09:57.110Z,11.30
2019-05-10T20:13:59.576Z,11.07
2019-05-10T20:18:05.091Z,10.77
2019-05-10T20:22:07.708Z,11.20
2019-05-10T20:26:10.196Z,9.77
2019-05-10T20:30:12.643Z,9.40
2019-05-10T20:34:15.256Z,9.73
2019-05-10T20:38:17.583Z,7.90
2019-05-10T20:42:20.200Z,9.23
2019-05-10T20:46:22.585Z,7.60
2019-05-10T20:50:25.173Z,8.80
2019-05-10T20:54:27.689Z,9.13
2019-05-10T20:58:30.255Z,8.20
2019-05-10T21:02:32.612Z,8.90
2019-05-10T21:06:35.186Z,8.13
2019-05-10T21:10:37.554Z,8.90
2019-05-10T21:14:40.093Z,7.80
2019-05-10T21:18:42.777Z,7.63
2019-05-10T21:22:45.111Z,7.93
2019-05-10T21:26:47.449Z,7.50
2019-05-10T21:30:53.267Z,7.60
2019-05-10T21:34:53.698Z,7.00
2019-05-10T21:38:56.187Z,7.13
2019-05-10T21:42:58.447Z,7.90
2019-05-10T21:47:00.837Z,7.43
2019-05-10T21:51:03.313Z,7.17
2019-05-10T21:55:05.830Z,7.10
2019-05-10T21:59:08.448Z,6.87
2019-05-10T22:03:10.932Z,8.30
2019-05-10T22:07:13.368Z,7.47
2019-05-10T22:11:16.079Z,7.63
2019-05-10T22:15:18.354Z,7.70
2019-05-10T22:19:20.992Z,6.43
2019-05-10T22:23:23.764Z,6.97
2019-05-10T22:27:26.080Z,6.73
2019-05-10T22:31:28.683Z,6.70
2019-05-10T22:35:31.095Z,6.83
2019-05-10T22:39:33.644Z,6.60
2019-05-10T22:43:35.994Z,7.80
2019-05-10T22:47:38.329Z,7.60
2019-05-10T22:51:40.885Z,7.20
2019-05-10T22:55:43.230Z,7.00
2019-05-10T22:59:46.010Z,6.90
2019-05-10T23:03:48.651Z,6.77
2019-05-10T23:07:51.132Z,7.37
2019-05-10T23:11:53.534Z,6.50
2019-05-10T23:15:56.195Z,5.80
2019-05-10T23:19:58.640Z,6.60
2019-05-10T23:24:01.479Z,6.60
2019-05-10T23:28:03.955Z,6.40
2019-05-10T23:32:06.602Z,6.00
2019-05-10T23:36:09.036Z,6.87
2019-05-10T23:40:11.501Z,5.73
2019-05-10T23:44:14.007Z,6.80
2019-05-10T23:48:16.580Z,7.50
2019-05-10T23:52:19.080Z,6.67
2019-05-10T23:56:21.764Z,7.13
